sensor_id;sensor_type;location;lat;lon;timestamp;pressure;altitude;pressure_sealevel;temperature;humidity
71903;BME280;59778;50.310;18.780;2022-12-10T00:11:34;97546.97;;;1.43;100.00
71903;BME280;59778;50.310;18.780;2022-12-10T00:26:55;97552.66;;;1.32;100.00
71903;BME280;59778;50.310;18.780;2022-12-10T00:42:16;97548.66;;;1.36;100.00
71903;BME280;59778;50.310;18.780;2022-12-10T00:57:37;97550.97;;;1.31;100.00
71903;BME280;59778;50.310;18.780;2022-12-10T01:12:59;97571.03;;;1.27;100.00
71903;BME280;59778;50.310;18.780;2022-12-10T01:28:20;97579.06;;;1.27;100.00
71903;BME280;59778;50.310;18.780;2022-12-10T01:59:22;97583.91;;;1.31;100.00
71903;BME280;59778;50.310;18.780;2022-12-10T02:14:54;97610.84;;;1.38;100.00
71903;BME280;59778;50.310;18.780;2022-12-10T02:30:17;97618.84;;;1.30;100.00
71903;BME280;59778;50.310;18.780;2022-12-10T02:45:39;97613.19;;;1.57;100.00
71903;BME280;59778;50.310;18.780;2022-12-10T03:01:12;97602.13;;;1.60;100.00
71903;BME280;59778;50.310;18.780;2022-12-10T03:16:42;97618.53;;;1.65;99.99
71903;BME280;59778;50.310;18.780;2022-12-10T03:32:05;97629.72;;;1.61;100.00
71903;BME280;59778;50.310;18.780;2022-12-10T03:47:26;97654.28;;;1.40;100.00
71903;BME280;59778;50.310;18.780;2022-12-10T04:02:48;97642.09;;;1.37;100.00
71903;BME280;59778;50.310;18.780;2022-12-10T04:18:09;97663.78;;;1.34;100.00
71903;BME280;59778;50.310;18.780;2022-12-10T04:33:30;97678.22;;;1.50;100.00
71903;BME280;59778;50.310;18.780;2022-12-10T04:48:51;97706.81;;;1.57;100.00
71903;BME280;59778;50.310;18.780;2022-12-10T05:04:16;97703.66;;;1.62;99.78
71903;BME280;59778;50.310;18.780;2022-12-10T05:19:37;97726.06;;;1.69;100.00
71903;BME280;59778;50.310;18.780;2022-12-10T05:34:58;97727.00;;;1.43;99.92
71903;BME280;59778;50.310;18.780;2022-12-10T05:50:20;97724.16;;;1.29;100.00
71903;BME280;59778;50.310;18.780;2022-12-10T06:05:41;97685.03;;;1.36;100.00
71903;BME280;59778;50.310;18.780;2022-12-10T06:21:03;97721.13;;;1.32;100.00
71903;BME280;59778;50.310;18.780;2022-12-10T06:36:25;97755.22;;;1.22;100.00
71903;BME280;59778;50.310;18.780;2022-12-10T06:51:47;97777.34;;;1.48;100.00
71903;BME280;59778;50.310;18.780;2022-12-10T07:07:08;97798.75;;;1.48;99.46
71903;BME280;59778;50.310;18.780;2022-12-10T07:22:30;97784.50;;;1.39;99.03
71903;BME280;59778;50.310;18.780;2022-12-10T07:37:51;97804.31;;;1.63;98.69
71903;BME280;59778;50.310;18.780;2022-12-10T07:53:12;97829.13;;;1.39;99.81
71903;BME280;59778;50.310;18.780;2022-12-10T08:08:34;97815.44;;;1.34;99.48
71903;BME280;59778;50.310;18.780;2022-12-10T08:23:56;97797.84;;;1.31;99.76
71903;BME280;59778;50.310;18.780;2022-12-10T08:39:18;97805.72;;;1.33;99.97
71903;BME280;59778;50.310;18.780;2022-12-10T08:54:39;97824.66;;;1.48;99.57
71903;BME280;59778;50.310;18.780;2022-12-10T09:10:01;97816.59;;;1.39;100.00
71903;BME280;59778;50.310;18.780;2022-12-10T09:25:22;97802.28;;;1.49;99.39
71903;BME280;59778;50.310;18.780;2022-12-10T09:40:48;97797.28;;;1.54;99.47
71903;BME280;59778;50.310;18.780;2022-12-10T09:56:23;97786.22;;;1.49;98.56
71903;BME280;59778;50.310;18.780;2022-12-10T10:11:46;97780.19;;;1.47;98.73
71903;BME280;59778;50.310;18.780;2022-12-10T10:27:17;97792.75;;;1.46;98.32
71903;BME280;59778;50.310;18.780;2022-12-10T10:42:42;97798.09;;;1.54;98.94
71903;BME280;59778;50.310;18.780;2022-12-10T10:58:05;97789.03;;;1.39;98.56
71903;BME280;59778;50.310;18.780;2022-12-10T11:13:28;97800.94;;;1.53;98.26
71903;BME280;59778;50.310;18.780;2022-12-10T11:29:02;97783.69;;;1.47;98.89
71903;BME280;59778;50.310;18.780;2022-12-10T11:44:55;97787.94;;;1.74;98.32
71903;BME280;59778;50.310;18.780;2022-12-10T12:00:24;97786.06;;;1.58;97.80
71903;BME280;59778;50.310;18.780;2022-12-10T12:15:52;97786.03;;;1.42;98.50
71903;BME280;59778;50.310;18.780;2022-12-10T12:31:20;97776.50;;;1.48;98.04
71903;BME280;59778;50.310;18.780;2022-12-10T12:46:44;97781.84;;;1.39;98.96
71903;BME280;59778;50.310;18.780;2022-12-10T13:18:04;97782.31;;;1.35;99.83
71903;BME280;59778;50.310;18.780;2022-12-10T13:33:45;97783.69;;;1.47;100.00
71903;BME280;59778;50.310;18.780;2022-12-10T13:49:16;97822.91;;;1.22;100.00
71903;BME280;59778;50.310;18.780;2022-12-10T14:20:31;97818.03;;;1.18;100.00
71903;BME280;59778;50.310;18.780;2022-12-10T14:35:53;97844.50;;;1.29;100.00
71903;BME280;59778;50.310;18.780;2022-12-10T14:51:17;97846.69;;;1.33;100.00
71903;BME280;59778;50.310;18.780;2022-12-10T15:06:39;97845.81;;;0.99;100.00
71903;BME280;59778;50.310;18.780;2022-12-10T15:37:39;97846.94;;;1.14;100.00
71903;BME280;59778;50.310;18.780;2022-12-10T15:53:01;97827.66;;;1.03;100.00
71903;BME280;59778;50.310;18.780;2022-12-10T16:08:27;97828.13;;;0.98;100.00
71903;BME280;59778;50.310;18.780;2022-12-10T16:23:49;97828.47;;;1.03;100.00
71903;BME280;59778;50.310;18.780;2022-12-10T16:39:10;97826.97;;;1.01;100.00
71903;BME280;59778;50.310;18.780;2022-12-10T16:54:32;97816.81;;;1.12;100.00
71903;BME280;59778;50.310;18.780;2022-12-10T17:09:53;97817.91;;;0.93;100.00
71903;BME280;59778;50.310;18.780;2022-12-10T17:25:15;97815.94;;;1.04;100.00
71903;BME280;59778;50.310;18.780;2022-12-10T17:40:36;97843.88;;;1.09;100.00
71903;BME280;59778;50.310;18.780;2022-12-10T17:55:59;97829.69;;;1.09;99.90
71903;BME280;59778;50.310;18.780;2022-12-10T18:11:39;97820.34;;;1.13;100.00
71903;BME280;59778;50.310;18.780;2022-12-10T18:27:03;97823.00;;;1.13;100.00
71903;BME280;59778;50.310;18.780;2022-12-10T18:42:24;97822.31;;;1.03;100.00
71903;BME280;59778;50.310;18.780;2022-12-10T18:57:46;97816.69;;;0.88;100.00
71903;BME280;59778;50.310;18.780;2022-12-10T19:13:07;97805.06;;;0.97;100.00
71903;BME280;59778;50.310;18.780;2022-12-10T19:28:29;97807.41;;;1.00;100.00
71903;BME280;59778;50.310;18.780;2022-12-10T19:43:50;97824.31;;;1.09;99.60
71903;BME280;59778;50.310;18.780;2022-12-10T19:59:15;97820.16;;;1.06;99.10
71903;BME280;59778;50.310;18.780;2022-12-10T20:14:38;97803.31;;;0.88;98.78
71903;BME280;59778;50.310;18.780;2022-12-10T20:29:59;97786.97;;;0.91;99.01
71903;BME280;59778;50.310;18.780;2022-12-10T20:45:21;97786.63;;;0.86;99.21
71903;BME280;59778;50.310;18.780;2022-12-10T21:00:42;97769.56;;;0.79;98.46
71903;BME280;59778;50.310;18.780;2022-12-10T21:16:04;97776.41;;;0.81;98.64
71903;BME280;59778;50.310;18.780;2022-12-10T21:31:25;97779.09;;;0.81;98.51
71903;BME280;59778;50.310;18.780;2022-12-10T21:46:47;97777.34;;;0.72;98.74
71903;BME280;59778;50.310;18.780;2022-12-10T22:02:09;97772.47;;;0.68;99.74
71903;BME280;59778;50.310;18.780;2022-12-10T22:17:31;97755.13;;;0.72;99.43
71903;BME280;59778;50.310;18.780;2022-12-10T22:32:52;97754.47;;;0.70;98.89
71903;BME280;59778;50.310;18.780;2022-12-10T22:48:14;97749.03;;;0.54;99.63
71903;BME280;59778;50.310;18.780;2022-12-10T23:03:35;97748.84;;;0.47;100.00
71903;BME280;59778;50.310;18.780;2022-12-10T23:18:56;97735.88;;;0.60;100.00
71903;BME280;59778;50.310;18.780;2022-12-10T23:34:18;97733.47;;;0.49;100.00
71903;BME280;59778;50.310;18.780;2022-12-10T23:49:39;97718.34;;;0.58;100.00
